createdAt,value
2023-02-01T00:01:06.431Z,77.44
2023-02-01T00:03:39.527Z,77.19
2023-02-01T00:06:06.366Z,77.22
2023-02-01T00:08:39.499Z,77.14
2023-02-01T00:11:27.446Z,76.77
2023-02-01T00:14:00.389Z,77.19
2023-02-01T00:16:31.573Z,76.88
2023-02-01T00:19:23.494Z,77.20
2023-02-01T00:21:50.248Z,77.09
2023-02-01T00:24:23.534Z,77.12
2023-02-01T00:26:56.518Z,77.09
2023-02-01T00:29:23.266Z,76.87
2023-02-01T00:31:59.790Z,77.18
2023-02-01T00:34:26.663Z,76.90
2023-02-01T00:36:59.569Z,76.94
2023-02-01T00:39:26.289Z,77.25
2023-02-01T00:42:00.510Z,77.36
2023-02-01T00:44:28.247Z,77.48
2023-02-01T00:47:01.500Z,77.75
2023-02-01T00:49:29.547Z,77.61
2023-02-01T00:52:03.574Z,77.36
2023-02-01T00:54:30.589Z,77.94
2023-02-01T00:57:03.595Z,77.72
2023-02-01T00:59:36.507Z,78.01
2023-02-01T01:02:03.515Z,77.88
2023-02-01T01:04:36.513Z,77.69
2023-02-01T01:07:03.249Z,78.02
2023-02-01T01:09:36.551Z,77.98
2023-02-01T01:12:23.448Z,78.15
2023-02-01T01:14:56.481Z,77.99
2023-02-01T01:17:23.195Z,77.86
2023-02-01T01:19:58.950Z,77.96
2023-02-01T01:22:26.794Z,78.06
2023-02-01T01:25:00.495Z,77.75
2023-02-01T01:27:27.272Z,77.84
2023-02-01T01:30:00.671Z,77.88
2023-02-01T01:32:27.445Z,77.74
2023-02-01T01:34:54.125Z,77.64
2023-02-01T01:37:27.488Z,77.58
2023-02-01T01:39:56.200Z,77.60
2023-02-01T01:42:29.671Z,77.52
2023-02-01T01:45:02.286Z,77.66
2023-02-01T01:47:43.460Z,77.83
2023-02-01T01:50:13.652Z,77.60
2023-02-01T01:52:49.543Z,77.68
2023-02-01T01:55:19.559Z,77.65
2023-02-01T01:58:01.543Z,77.43
2023-02-01T02:00:32.022Z,77.53
2023-02-01T02:03:11.468Z,77.68
2023-02-01T02:05:45.462Z,77.57
2023-02-01T02:08:13.030Z,77.58
2023-02-01T02:11:04.516Z,77.32
2023-02-01T02:13:41.739Z,77.64
2023-02-01T02:16:23.520Z,77.58
2023-02-01T02:19:01.664Z,77.36
2023-02-01T02:22:04.441Z,77.65
2023-02-01T02:24:59.550Z,77.74
2023-02-01T02:27:54.480Z,78.01
2023-02-01T02:30:42.990Z,77.60
2023-02-01T02:33:40.516Z,77.62
2023-02-01T02:36:21.524Z,77.40
2023-02-01T02:39:01.460Z,77.46
2023-02-01T02:42:19.523Z,77.62
2023-02-01T02:45:26.788Z,77.75
2023-02-01T02:48:26.674Z,77.74
2023-02-01T02:51:24.490Z,77.72
2023-02-01T02:54:37.530Z,77.46
2023-02-01T02:57:27.713Z,77.53
2023-02-01T03:00:22.864Z,77.55
2023-02-01T03:03:09.343Z,77.63
2023-02-01T03:05:50.554Z,77.58
2023-02-01T03:08:27.511Z,77.84
2023-02-01T03:11:03.576Z,78.01
2023-02-01T03:14:05.527Z,78.21
2023-02-01T03:16:44.701Z,78.00
2023-02-01T03:19:22.405Z,78.60
2023-02-01T03:22:03.588Z,78.89
2023-02-01T03:24:50.598Z,78.46
2023-02-01T03:27:42.567Z,79.13
2023-02-01T03:30:11.992Z,79.10
2023-02-01T03:33:16.707Z,79.20
2023-02-01T03:36:14.127Z,78.92
2023-02-01T03:39:06.541Z,78.79
2023-02-01T03:41:53.680Z,78.51
2023-02-01T03:44:31.521Z,78.46
2023-02-01T03:47:33.513Z,78.48
2023-02-01T03:50:12.563Z,78.12
2023-02-01T03:52:44.905Z,78.40
2023-02-01T03:55:20.496Z,77.93
2023-02-01T03:57:54.192Z,77.90
2023-02-01T04:00:30.586Z,77.90
2023-02-01T04:02:57.429Z,77.79
2023-02-01T04:05:31.569Z,77.70
2023-02-01T04:07:58.824Z,77.69
2023-02-01T04:10:26.046Z,77.59
2023-02-01T04:12:59.532Z,77.65
2023-02-01T04:15:39.531Z,77.67
2023-02-01T04:18:12.559Z,77.77
2023-02-01T04:20:45.536Z,77.17
2023-02-01T04:23:18.545Z,76.69
2023-02-01T04:25:51.607Z,76.56
2023-02-01T04:28:24.508Z,76.54
2023-02-01T04:30:51.338Z,76.37
2023-02-01T04:33:24.525Z,75.88
2023-02-01T04:35:51.624Z,75.80
2023-02-01T04:38:24.616Z,75.43
2023-02-01T04:40:51.401Z,75.03
2023-02-01T04:43:25.618Z,74.90
2023-02-01T04:45:59.562Z,74.45
2023-02-01T04:48:32.641Z,74.63
2023-02-01T04:50:59.370Z,74.30
2023-02-01T04:53:32.574Z,74.66
2023-02-01T04:56:05.651Z,73.67
2023-02-01T04:58:32.422Z,73.90
2023-02-01T05:01:06.868Z,74.96
2023-02-01T05:03:34.876Z,74.96
2023-02-01T05:06:08.613Z,75.13
2023-02-01T05:08:37.790Z,74.94
2023-02-01T05:11:12.624Z,75.06
2023-02-01T05:13:52.049Z,74.85
2023-02-01T05:16:25.602Z,74.55
2023-02-01T05:18:58.563Z,74.68
2023-02-01T05:21:32.576Z,74.93
2023-02-01T05:24:17.634Z,74.82
2023-02-01T05:26:50.765Z,74.76
2023-02-01T05:29:18.884Z,74.36
2023-02-01T05:31:47.150Z,74.38
2023-02-01T05:34:20.604Z,74.05
2023-02-01T05:36:53.645Z,74.19
2023-02-01T05:39:26.593Z,73.74
2023-02-01T05:41:53.223Z,73.70
2023-02-01T05:44:26.649Z,74.14
2023-02-01T05:46:53.508Z,73.96
2023-02-01T05:49:26.642Z,73.87
2023-02-01T05:52:00.587Z,73.91
2023-02-01T05:54:27.479Z,74.10
2023-02-01T05:57:00.606Z,73.68
2023-02-01T05:59:33.549Z,73.70
2023-02-01T06:02:00.106Z,73.74
2023-02-01T06:04:33.581Z,73.54
2023-02-01T06:07:00.267Z,73.20
2023-02-01T06:09:33.721Z,73.31
2023-02-01T06:12:06.632Z,73.09
2023-02-01T06:14:46.606Z,73.51
2023-02-01T06:17:13.390Z,73.36
2023-02-01T06:19:48.586Z,73.40
2023-02-01T06:22:15.508Z,72.82
2023-02-01T06:24:48.901Z,73.11
2023-02-01T06:27:22.600Z,72.83
2023-02-01T06:29:55.677Z,73.24
2023-02-01T06:32:28.579Z,73.44
2023-02-01T06:34:56.428Z,73.50
2023-02-01T06:37:30.665Z,73.25
2023-02-01T06:40:03.657Z,73.84
2023-02-01T06:42:30.416Z,73.35
2023-02-01T06:45:03.777Z,73.41
2023-02-01T06:47:30.542Z,73.19
2023-02-01T06:50:03.669Z,73.39
2023-02-01T06:52:30.362Z,73.43
2023-02-01T06:55:03.680Z,73.54
2023-02-01T06:57:32.030Z,73.45
2023-02-01T07:00:05.726Z,73.53
2023-02-01T07:02:32.544Z,73.15
2023-02-01T07:05:05.676Z,73.53
2023-02-01T07:07:38.640Z,73.22
2023-02-01T07:10:05.819Z,73.72
2023-02-01T07:12:38.603Z,73.42
2023-02-01T07:15:13.116Z,74.05
2023-02-01T07:17:46.642Z,74.62
2023-02-01T07:20:13.584Z,74.70
2023-02-01T07:22:46.674Z,73.80
2023-02-01T07:25:13.834Z,73.50
2023-02-01T07:27:47.686Z,73.66
2023-02-01T07:30:14.263Z,73.69
2023-02-01T07:32:47.683Z,73.74
2023-02-01T07:35:21.825Z,73.62
2023-02-01T07:37:54.601Z,72.89
2023-02-01T07:40:32.548Z,73.33
2023-02-01T07:43:06.617Z,73.39
2023-02-01T07:45:39.870Z,72.82
2023-02-01T07:48:12.651Z,72.84
2023-02-01T07:50:45.613Z,72.71
2023-02-01T07:53:12.256Z,72.61
2023-02-01T07:55:46.715Z,72.57
2023-02-01T07:58:13.375Z,72.93
2023-02-01T08:01:04.635Z,72.61
2023-02-01T08:03:31.309Z,72.66
2023-02-01T08:06:04.615Z,72.23
2023-02-01T08:08:31.353Z,72.49
2023-02-01T08:11:09.635Z,71.96
2023-02-01T08:13:50.728Z,71.80
2023-02-01T08:16:19.623Z,72.25
2023-02-01T08:18:55.704Z,71.58
2023-02-01T08:21:37.717Z,71.85
2023-02-01T08:24:13.650Z,71.73
2023-02-01T08:26:40.324Z,71.39
2023-02-01T08:29:15.634Z,71.58
2023-02-01T08:31:49.809Z,72.02
2023-02-01T08:34:16.678Z,72.04
2023-02-01T08:36:49.629Z,72.18
2023-02-01T08:39:16.315Z,72.29
2023-02-01T08:42:09.751Z,72.72
2023-02-01T08:44:42.613Z,72.85
2023-02-01T08:47:15.620Z,72.76
2023-02-01T08:49:42.596Z,72.43
2023-02-01T08:52:16.472Z,72.52
2023-02-01T08:54:43.326Z,72.55
2023-02-01T08:57:17.673Z,72.89
2023-02-01T08:59:51.767Z,72.98
2023-02-01T09:02:25.934Z,72.53
2023-02-01T09:05:02.865Z,72.91
2023-02-01T09:07:36.936Z,72.37
2023-02-01T09:10:11.640Z,72.96
2023-02-01T09:12:44.833Z,72.92
2023-02-01T09:15:24.769Z,72.57
2023-02-01T09:17:51.462Z,72.53
2023-02-01T09:20:26.814Z,72.92
2023-02-01T09:22:55.726Z,73.17
2023-02-01T09:25:28.770Z,73.07
2023-02-01T09:27:55.627Z,73.16
2023-02-01T09:30:31.505Z,72.85
2023-02-01T09:33:04.692Z,72.98
2023-02-01T09:35:37.785Z,73.02
2023-02-01T09:38:10.670Z,72.84
2023-02-01T09:40:43.771Z,72.84
2023-02-01T09:43:37.748Z,73.12
2023-02-01T09:46:31.842Z,73.03
2023-02-01T09:49:03.354Z,72.55
2023-02-01T09:51:40.695Z,72.68
2023-02-01T09:54:21.668Z,72.69
2023-02-01T09:57:02.749Z,72.35
2023-02-01T09:59:52.720Z,73.02
2023-02-01T10:02:34.675Z,72.74
2023-02-01T10:05:02.725Z,72.35
2023-02-01T10:07:51.679Z,72.50
2023-02-01T10:10:36.711Z,72.63
2023-02-01T10:13:16.806Z,72.63
2023-02-01T10:16:26.907Z,72.16
2023-02-01T10:19:16.771Z,72.26
2023-02-01T10:22:04.727Z,72.61
2023-02-01T10:25:09.798Z,72.73
2023-02-01T10:27:45.709Z,72.64
2023-02-01T10:30:32.787Z,73.59
2023-02-01T10:33:30.659Z,75.54
2023-02-01T10:36:26.881Z,77.04
2023-02-01T10:38:53.757Z,79.02
2023-02-01T10:41:32.753Z,80.09
2023-02-01T10:44:01.672Z,81.17
2023-02-01T10:46:28.717Z,81.94
2023-02-01T10:49:04.780Z,82.15
2023-02-01T10:51:47.268Z,82.55
2023-02-01T10:54:30.085Z,83.02
2023-02-01T10:57:03.878Z,82.94
2023-02-01T10:59:33.611Z,83.31
2023-02-01T11:02:03.758Z,83.48
2023-02-01T11:04:43.781Z,83.46
2023-02-01T11:07:27.094Z,83.90
2023-02-01T11:10:02.786Z,84.04
2023-02-01T11:12:39.743Z,84.47
2023-02-01T11:15:27.237Z,84.73
2023-02-01T11:18:03.728Z,85.04
2023-02-01T11:20:39.825Z,85.12
2023-02-01T11:23:06.939Z,85.68
2023-02-01T11:25:43.786Z,86.15
2023-02-01T11:28:17.820Z,85.93
2023-02-01T11:30:54.732Z,85.83
2023-02-01T11:33:27.485Z,86.02
2023-02-01T11:36:00.752Z,85.78
2023-02-01T11:38:33.990Z,85.90
2023-02-01T11:41:30.931Z,86.00
2023-02-01T11:44:06.756Z,86.01
2023-02-01T11:46:43.052Z,85.69
2023-02-01T11:49:28.943Z,85.68
2023-02-01T11:52:12.741Z,85.85
2023-02-01T11:54:54.816Z,85.50
2023-02-01T11:58:04.801Z,85.75
2023-02-01T12:00:43.798Z,85.30
2023-02-01T12:03:37.855Z,85.86
2023-02-01T12:06:20.818Z,85.80
2023-02-01T12:09:18.805Z,85.44
2023-02-01T12:12:30.749Z,85.85
2023-02-01T12:15:54.677Z,85.38
2023-02-01T12:18:55.523Z,85.35
2023-02-01T12:21:34.824Z,85.40
2023-02-01T12:24:16.761Z,85.57
2023-02-01T12:27:14.830Z,85.09
2023-02-01T12:30:18.731Z,85.17
2023-02-01T12:33:04.041Z,84.92
2023-02-01T12:35:56.116Z,84.15
2023-02-01T12:38:41.523Z,82.99
2023-02-01T12:41:36.841Z,82.96
2023-02-01T12:44:31.814Z,83.00
2023-02-01T12:47:24.895Z,83.23
2023-02-01T12:50:22.804Z,82.76
2023-02-01T12:52:58.803Z,83.26
2023-02-01T12:55:51.761Z,83.13
2023-02-01T12:58:34.809Z,82.54
2023-02-01T13:01:10.020Z,82.62
2023-02-01T13:04:03.809Z,82.07
2023-02-01T13:06:41.706Z,82.10
2023-02-01T13:09:30.850Z,82.04
2023-02-01T13:12:14.804Z,82.40
2023-02-01T13:15:00.911Z,82.80
2023-02-01T13:17:33.303Z,82.72
2023-02-01T13:20:26.198Z,82.57
2023-02-01T13:23:05.782Z,82.96
2023-02-01T13:26:07.741Z,82.47
2023-02-01T13:28:59.296Z,82.79
2023-02-01T13:31:57.764Z,81.89
2023-02-01T13:34:54.092Z,81.17
2023-02-01T13:38:04.826Z,81.02
2023-02-01T13:40:46.004Z,81.01
2023-02-01T13:43:29.806Z,80.74
2023-02-01T13:46:08.742Z,81.15
2023-02-01T13:48:56.747Z,81.97
2023-02-01T13:51:42.015Z,82.79
2023-02-01T13:54:49.745Z,83.52
2023-02-01T13:57:45.802Z,83.03
2023-02-01T14:00:37.790Z,82.80
2023-02-01T14:03:13.797Z,82.25
2023-02-01T14:05:41.035Z,82.54
2023-02-01T14:08:07.775Z,81.96
2023-02-01T14:10:54.755Z,82.33
2023-02-01T14:13:57.784Z,82.73
2023-02-01T14:16:25.993Z,83.01
2023-02-01T14:19:07.948Z,83.36
2023-02-01T14:21:49.767Z,83.73
2023-02-01T14:24:31.813Z,84.80
2023-02-01T14:27:26.651Z,84.77
2023-02-01T14:30:05.856Z,85.03
2023-02-01T14:32:39.502Z,84.96
2023-02-01T14:35:28.966Z,85.14
2023-02-01T14:38:09.869Z,85.49
2023-02-01T14:40:37.010Z,85.53
2023-02-01T14:43:31.943Z,86.14
2023-02-01T14:45:59.958Z,86.41
2023-02-01T14:48:32.833Z,86.86
2023-02-01T14:51:00.920Z,86.96
2023-02-01T14:53:41.797Z,87.28
2023-02-01T14:56:24.999Z,87.06
2023-02-01T14:59:05.394Z,86.69
2023-02-01T15:01:41.882Z,86.05
2023-02-01T15:04:25.866Z,85.08
2023-02-01T15:06:57.844Z,85.12
2023-02-01T15:09:43.830Z,85.16
2023-02-01T15:12:19.903Z,84.44
2023-02-01T15:15:22.208Z,83.99
2023-02-01T15:17:54.379Z,84.08
2023-02-01T15:20:31.790Z,84.97
2023-02-01T15:23:02.469Z,85.74
2023-02-01T15:25:45.891Z,86.30
2023-02-01T15:28:15.516Z,86.12
2023-02-01T15:31:14.279Z,85.92
2023-02-01T15:34:03.827Z,85.20
2023-02-01T15:36:41.208Z,84.49
2023-02-01T15:39:19.620Z,84.11
2023-02-01T15:41:57.873Z,84.09
2023-02-01T15:44:43.220Z,83.94
2023-02-01T15:47:38.791Z,83.19
2023-02-01T15:50:06.196Z,83.15
2023-02-01T15:52:48.848Z,83.54
2023-02-01T15:55:25.811Z,83.51
2023-02-01T15:57:59.892Z,83.50
2023-02-01T16:00:31.546Z,83.79
2023-02-01T16:03:10.926Z,83.47
2023-02-01T16:05:50.857Z,83.52
2023-02-01T16:08:32.837Z,83.70
2023-02-01T16:11:08.368Z,83.81
2023-02-01T16:13:48.822Z,83.95
2023-02-01T16:16:29.073Z,83.68
2023-02-01T16:18:55.931Z,83.59
2023-02-01T16:21:29.800Z,83.23
2023-02-01T16:23:56.471Z,83.06
2023-02-01T16:26:29.827Z,83.22
2023-02-01T16:28:56.503Z,83.19
2023-02-01T16:31:34.912Z,83.29
2023-02-01T16:34:01.870Z,83.12
2023-02-01T16:36:35.897Z,75.59
2023-02-01T16:39:03.962Z,57.37
2023-02-01T16:41:30.936Z,47.13
2023-02-01T16:44:04.824Z,40.20
2023-02-01T16:46:42.900Z,39.72
2023-02-01T16:49:27.892Z,41.45
2023-02-01T16:52:05.879Z,42.31
2023-02-01T16:54:38.857Z,41.29
2023-02-01T16:57:12.867Z,36.63
2023-02-01T16:59:55.914Z,40.02
2023-02-01T17:02:35.852Z,40.43
2023-02-01T17:05:08.904Z,39.75
2023-02-01T17:07:39.377Z,39.26
2023-02-01T17:10:21.351Z,40.43
2023-02-01T17:12:54.993Z,39.98
2023-02-01T17:15:41.868Z,40.49
2023-02-01T17:18:15.505Z,36.21
2023-02-01T17:20:49.125Z,36.37
2023-02-01T17:23:16.926Z,37.64
2023-02-01T17:25:50.078Z,37.79
2023-02-01T17:28:16.722Z,35.93
2023-02-01T17:30:49.900Z,35.89
2023-02-01T17:33:24.931Z,36.85
2023-02-01T17:36:00.880Z,36.41
2023-02-01T17:38:27.984Z,37.12
2023-02-01T17:41:00.895Z,37.44
2023-02-01T17:43:27.616Z,35.87
2023-02-01T17:46:21.988Z,36.08
2023-02-01T17:48:48.747Z,34.92
2023-02-01T17:51:20.555Z,35.25
2023-02-01T17:53:53.839Z,35.17
2023-02-01T17:56:29.835Z,33.99
2023-02-01T17:58:56.681Z,34.88
2023-02-01T18:01:31.969Z,35.59
2023-02-01T18:03:58.673Z,35.09
2023-02-01T18:06:33.922Z,36.25
2023-02-01T18:09:07.001Z,35.12
2023-02-01T18:11:33.811Z,35.22
2023-02-01T18:14:06.949Z,36.89
2023-02-01T18:16:48.047Z,39.48
2023-02-01T18:19:14.680Z,41.40
2023-02-01T18:21:49.919Z,41.24
2023-02-01T18:24:23.928Z,39.92
2023-02-01T18:26:58.841Z,38.39
2023-02-01T18:29:25.642Z,35.97
2023-02-01T18:31:59.040Z,38.28
2023-02-01T18:34:27.341Z,36.25
2023-02-01T18:36:54.008Z,35.63
2023-02-01T18:39:26.933Z,34.78
2023-02-01T18:41:59.941Z,34.00
2023-02-01T18:44:26.676Z,35.04
2023-02-01T18:46:59.945Z,34.76
2023-02-01T18:49:26.609Z,34.92
2023-02-01T18:51:59.891Z,33.83
2023-02-01T18:54:26.529Z,32.71
2023-02-01T18:56:53.206Z,31.85
2023-02-01T18:59:26.913Z,33.04
2023-02-01T19:01:53.588Z,31.65
2023-02-01T19:04:27.172Z,31.18
2023-02-01T19:06:54.070Z,31.04
2023-02-01T19:09:27.004Z,31.60
2023-02-01T19:11:53.595Z,32.78
2023-02-01T19:14:32.856Z,32.59
2023-02-01T19:17:05.937Z,33.77
2023-02-01T19:19:41.034Z,34.74
2023-02-01T19:22:08.615Z,32.54
2023-02-01T19:24:41.939Z,32.61
2023-02-01T19:27:15.919Z,32.78
2023-02-01T19:29:46.076Z,33.65
2023-02-01T19:32:13.939Z,34.46
2023-02-01T19:34:47.923Z,35.66
2023-02-01T19:37:20.909Z,34.34
2023-02-01T19:39:47.675Z,31.76
2023-02-01T19:42:20.897Z,31.06
2023-02-01T19:44:47.680Z,32.08
2023-02-01T19:47:20.933Z,31.35
2023-02-01T19:49:47.569Z,31.57
2023-02-01T19:52:20.956Z,32.57
2023-02-01T19:54:47.557Z,29.55
2023-02-01T19:57:21.083Z,28.58
2023-02-01T19:59:53.945Z,29.04
2023-02-01T20:02:19.656Z,29.22
2023-02-01T20:04:53.053Z,29.40
2023-02-01T20:07:19.689Z,30.13
2023-02-01T20:09:53.067Z,31.09
2023-02-01T20:12:19.813Z,30.74
2023-02-01T20:14:53.106Z,30.41
2023-02-01T20:17:19.772Z,30.20
2023-02-01T20:19:53.149Z,31.77
2023-02-01T20:22:19.783Z,30.57
2023-02-01T20:24:46.422Z,30.26
2023-02-01T20:27:20.026Z,31.01
2023-02-01T20:29:52.974Z,32.60
2023-02-01T20:32:20.180Z,33.70
2023-02-01T20:34:52.953Z,33.11
2023-02-01T20:37:26.967Z,34.63
2023-02-01T20:39:53.747Z,33.72
2023-02-01T20:42:26.972Z,33.12
2023-02-01T20:44:53.680Z,32.99
2023-02-01T20:47:26.979Z,33.08
2023-02-01T20:49:53.620Z,33.13
2023-02-01T20:52:27.037Z,31.68
2023-02-01T20:54:53.662Z,31.84
2023-02-01T20:57:20.522Z,31.89
2023-02-01T20:59:56.000Z,32.71
2023-02-01T21:02:22.831Z,31.44
2023-02-01T21:04:55.996Z,29.98
2023-02-01T21:07:22.651Z,29.82
2023-02-01T21:09:55.945Z,29.79
2023-02-01T21:12:22.771Z,30.60
2023-02-01T21:15:03.012Z,31.12
2023-02-01T21:17:31.279Z,31.15
2023-02-01T21:20:05.082Z,31.28
2023-02-01T21:22:31.684Z,30.24
2023-02-01T21:25:05.010Z,28.99
2023-02-01T21:27:31.589Z,28.29
2023-02-01T21:30:06.384Z,30.07
2023-02-01T21:32:41.147Z,31.31
2023-02-01T21:35:15.009Z,30.27
2023-02-01T21:37:41.612Z,28.13
2023-02-01T21:40:16.083Z,28.04
2023-02-01T21:42:45.653Z,26.69
2023-02-01T21:45:23.301Z,26.15
2023-02-01T21:47:56.989Z,27.21
2023-02-01T21:50:23.614Z,27.91
2023-02-01T21:52:58.035Z,28.07
2023-02-01T21:55:24.981Z,28.87
2023-02-01T21:57:58.063Z,28.78
2023-02-01T22:00:24.789Z,28.45
2023-02-01T22:02:58.086Z,28.81
2023-02-01T22:05:26.309Z,27.36
2023-02-01T22:07:59.999Z,29.37
2023-02-01T22:10:26.714Z,28.44
2023-02-01T22:12:53.469Z,27.54
2023-02-01T22:15:27.155Z,28.57
2023-02-01T22:18:00.457Z,27.30
2023-02-01T22:20:35.334Z,28.63
2023-02-01T22:23:02.117Z,29.03
2023-02-01T22:25:36.068Z,28.24
2023-02-01T22:28:31.227Z,28.32
2023-02-01T22:30:56.222Z,30.34
2023-02-01T22:33:23.031Z,31.25
2023-02-01T22:35:57.001Z,30.68
2023-02-01T22:38:23.645Z,30.51
2023-02-01T22:41:07.041Z,30.23
2023-02-01T22:43:34.408Z,29.88
2023-02-01T22:46:02.668Z,27.82
2023-02-01T22:48:37.074Z,28.08
2023-02-01T22:51:12.092Z,29.14
2023-02-01T22:53:38.725Z,29.78
2023-02-01T22:56:14.007Z,31.22
2023-02-01T22:58:48.265Z,28.02
2023-02-01T23:01:18.149Z,33.44
2023-02-01T23:03:51.019Z,45.31
2023-02-01T23:06:25.084Z,56.93
2023-02-01T23:08:55.562Z,62.91
2023-02-01T23:11:29.069Z,65.87
2023-02-01T23:14:10.013Z,67.22
2023-02-01T23:16:36.940Z,68.33
2023-02-01T23:19:04.300Z,69.96
2023-02-01T23:21:38.063Z,69.63
2023-02-01T23:24:14.134Z,71.56
2023-02-01T23:26:42.603Z,72.70
2023-02-01T23:29:22.057Z,71.40
2023-02-01T23:31:48.805Z,71.19
2023-02-01T23:34:22.041Z,72.48
2023-02-01T23:36:48.701Z,72.04
2023-02-01T23:39:22.085Z,71.54
2023-02-01T23:41:54.981Z,72.25
2023-02-01T23:44:21.605Z,72.66
2023-02-01T23:46:55.010Z,72.99
2023-02-01T23:49:28.040Z,71.53
2023-02-01T23:52:00.983Z,71.68
2023-02-01T23:54:27.533Z,72.51
2023-02-01T23:56:56.192Z,72.15
2023-02-01T23:59:33.227Z,73.42
